Time;durP1;ratioP1;P1;durP2;ratioP2;P2;SDS_P1;SDS_P2;PMS_P1;PMS_P2;Temp;Humidity;BMP_temperature;BMP_pressure;BME280_temperature;BME280_humidity;BME280_pressure;Samples;Min_cycle;Max_cycle;Signal;HPM_P1;HPM_P2
2021/09/01 00:02:55;;;;;;;13.63;3.92;;;;;;;16.04;96.76;102695.38;10460817;28;20048;-67
2021/09/01 00:07:57;;;;;;;16.02;4.03;;;;;;;16.00;98.17;102696.44;10460416;28;20053;-67
2021/09/01 00:13:00;;;;;;;16.50;4.00;;;;;;;15.99;98.49;102697.41;10460347;28;20049;-68
2021/09/01 00:18:02;;;;;;;15.63;4.90;;;;;;;15.71;99.61;102704.00;10460751;28;20049;-67
2021/09/01 00:23:05;;;;;;;14.02;4.45;;;;;;;15.92;96.89;102709.19;10460035;28;20053;-67
2021/09/01 00:28:07;;;;;;;11.05;4.57;;;;;;;15.76;96.78;102709.09;10459845;28;20072;-67
2021/09/01 00:33:09;;;;;;;10.52;3.35;;;;;;;15.68;95.00;102703.31;10460052;28;20049;-68
2021/09/01 00:38:11;;;;;;;12.05;3.25;;;;;;;15.76;93.35;102714.38;10459521;28;20052;-69
2021/09/01 00:43:14;;;;;;;13.57;4.40;;;;;;;15.66;91.68;102707.81;10459057;28;20413;-67
2021/09/01 00:48:20;;;;;;;13.23;3.78;;;;;;;15.82;91.55;102708.81;10458805;28;20048;-67
2021/09/01 00:53:24;;;;;;;13.95;3.45;;;;;;;15.76;90.39;102701.19;10458049;28;20045;-67
2021/09/01 00:58:28;;;;;;;12.75;4.38;;;;;;;15.78;91.62;102697.56;10458598;28;20053;-67
2021/09/01 01:03:56;;;;;;;10.93;4.28;;;;;;;15.76;91.60;102691.47;10458538;28;20049;-67
2021/09/01 01:08:58;;;;;;;15.85;4.07;;;;;;;15.68;92.27;102698.03;10457320;28;20580;-67
2021/09/01 01:14:00;;;;;;;15.50;4.47;;;;;;;15.79;91.91;102699.25;10458112;28;20045;-69
2021/09/01 01:19:03;;;;;;;15.85;3.95;;;;;;;15.68;91.98;102706.78;10457998;28;20378;-66
2021/09/01 01:24:05;;;;;;;17.13;4.32;;;;;;;15.57;91.15;102709.13;10457345;28;20607;-68
2021/09/01 01:29:10;;;;;;;19.40;4.20;;;;;;;15.63;90.53;102705.31;10457428;28;20048;-68
2021/09/01 01:34:13;;;;;;;16.65;4.55;;;;;;;15.63;91.72;102703.53;10456477;28;20394;-67
2021/09/01 01:39:16;;;;;;;8.15;3.58;;;;;;;15.72;93.42;102703.09;10457141;28;20401;-68
2021/09/01 01:44:18;;;;;;;15.30;4.75;;;;;;;15.90;89.29;102704.00;10457390;28;20409;-67
2021/09/01 01:49:20;;;;;;;13.93;4.32;;;;;;;15.97;90.21;102708.06;10456716;28;20052;-67
2021/09/01 01:54:23;;;;;;;14.85;4.63;;;;;;;15.68;91.75;102706.78;10457114;28;20057;-68
2021/09/01 01:59:25;;;;;;;12.65;4.10;;;;;;;15.55;94.48;102703.91;10456406;28;20053;-67
2021/09/01 02:04:27;;;;;;;12.60;3.17;;;;;;;15.95;91.59;102704.63;10456583;28;20049;-67
2021/09/01 02:09:30;;;;;;;13.35;3.60;;;;;;;15.79;93.81;102703.69;10456451;28;20049;-67
2021/09/01 02:14:32;;;;;;;13.90;3.65;;;;;;;15.79;92.48;102701.88;10456299;28;20490;-68
2021/09/01 02:19:34;;;;;;;16.75;4.70;;;;;;;15.66;93.66;102706.03;10456169;28;20053;-67
2021/09/01 02:24:37;;;;;;;13.18;4.45;;;;;;;15.67;94.63;102697.19;10463860;28;20500;-68
2021/09/01 02:29:39;;;;;;;16.48;4.68;;;;;;;15.59;96.46;102701.97;10464461;28;20071;-67
2021/09/01 02:34:41;;;;;;;10.68;3.55;;;;;;;15.93;94.17;102702.97;10464734;28;20052;-68
2021/09/01 02:39:44;;;;;;;6.82;4.00;;;;;;;15.44;97.99;102695.66;10463901;28;20432;-68
2021/09/01 02:44:46;;;;;;;14.93;5.22;;;;;;;15.50;97.91;102702.41;10464154;28;20049;-66
2021/09/01 02:49:48;;;;;;;10.48;3.22;;;;;;;15.77;96.55;102698.47;10463542;28;20057;-68
2021/09/01 02:54:51;;;;;;;10.80;3.20;;;;;;;15.51;97.52;102694.41;10463324;28;20496;-68
2021/09/01 02:59:53;;;;;;;11.63;3.90;;;;;;;15.64;98.26;102699.13;10463236;28;20049;-68
2021/09/01 03:04:55;;;;;;;12.27;3.10;;;;;;;15.72;96.83;102703.09;10463163;28;20049;-67
2021/09/01 03:09:57;;;;;;;11.55;4.07;;;;;;;15.66;94.53;102699.91;10463021;28;20048;-67
2021/09/01 03:15:01;;;;;;;13.45;4.03;;;;;;;15.60;95.69;102699.25;10462720;28;20060;-67
2021/09/01 03:20:04;;;;;;;10.52;4.50;;;;;;;15.52;96.78;102704.06;10462837;28;20049;-69
2021/09/01 03:25:07;;;;;;;7.45;3.85;;;;;;;15.67;95.60;102701.59;10462253;28;20049;-68
2021/09/01 03:30:10;;;;;;;11.90;3.47;;;;;;;15.40;98.79;102702.84;10462157;28;20049;-68
2021/09/01 03:35:12;;;;;;;12.52;3.80;;;;;;;15.66;96.27;102697.25;10461244;28;20048;-68
2021/09/01 03:40:15;;;;;;;15.18;4.35;;;;;;;15.56;95.13;102692.41;10460633;28;20049;-68
2021/09/01 03:45:17;;;;;;;13.43;4.10;;;;;;;15.16;95.21;102696.09;10461964;28;20056;-67
2021/09/01 03:50:20;;;;;;;15.73;6.38;;;;;;;15.33;90.87;102696.16;10460989;28;20477;-68
2021/09/01 03:55:22;;;;;;;11.57;4.53;;;;;;;15.63;90.34;102700.88;10461027;28;20494;-69
2021/09/01 04:00:24;;;;;;;11.65;4.30;;;;;;;15.40;96.02;102700.22;10460941;28;20052;-69
2021/09/01 04:05:27;;;;;;;12.07;4.85;;;;;;;15.77;93.17;102703.75;10460811;28;20053;-68
2021/09/01 04:10:29;;;;;;;12.10;4.18;;;;;;;15.39;96.72;102702.94;10460426;28;20480;-68
2021/09/01 04:15:31;;;;;;;10.70;4.65;;;;;;;15.52;96.56;102711.13;10460519;28;20052;-68
2021/09/01 04:20:34;;;;;;;10.13;4.10;;;;;;;15.61;96.65;102710.66;10460243;28;20056;-68
2021/09/01 04:25:36;;;;;;;15.10;4.07;;;;;;;15.58;97.07;102702.91;10460330;28;20053;-69
2021/09/01 04:30:38;;;;;;;15.60;5.03;;;;;;;15.31;99.20;102708.56;10460101;28;20060;-69
2021/09/01 04:35:44;;;;;;;13.38;4.75;;;;;;;15.30;99.94;102712.13;10459391;28;20091;-69
2021/09/01 04:40:47;;;;;;;9.93;3.72;;;;;;;15.58;96.75;102716.97;10459253;28;20049;-70
2021/09/01 04:45:49;;;;;;;16.25;4.90;;;;;;;15.47;96.93;102721.06;10458439;28;20053;-69
2021/09/01 04:50:52;;;;;;;16.27;5.30;;;;;;;15.30;100.00;102716.53;10458729;28;20049;-68
2021/09/01 04:55:54;;;;;;;20.70;5.53;;;;;;;14.91;98.76;102714.81;10459003;28;20045;-68
2021/09/01 05:00:57;;;;;;;19.63;6.00;;;;;;;15.26;97.66;102715.00;10458649;28;20060;-69
2021/09/01 05:05:59;;;;;;;11.88;4.70;;;;;;;15.21;97.47;102721.34;10458207;28;20447;-69
2021/09/01 05:11:02;;;;;;;11.63;4.82;;;;;;;15.21;96.51;102726.63;10458435;28;20408;-68
2021/09/01 05:16:04;;;;;;;13.85;4.43;;;;;;;15.38;95.55;102723.19;10456639;28;20512;-68
2021/09/01 05:21:07;;;;;;;10.40;4.38;;;;;;;15.51;94.40;102736.66;10457893;28;20129;-68
2021/09/01 05:26:10;;;;;;;13.00;4.07;;;;;;;15.30;96.09;102732.38;10456163;28;20063;-68
2021/09/01 05:31:14;;;;;;;13.27;4.82;;;;;;;15.37;96.95;102728.53;10456655;28;20391;-69
2021/09/01 05:36:17;;;;;;;10.43;3.83;;;;;;;15.35;96.86;102730.41;10457204;28;20452;-69
2021/09/01 05:41:19;;;;;;;12.38;3.72;;;;;;;15.12;96.44;102732.31;10457004;28;20059;-69
2021/09/01 05:46:22;;;;;;;11.68;3.38;;;;;;;15.37;97.14;102734.66;10455660;28;20056;-69
2021/09/01 05:51:25;;;;;;;13.07;4.30;;;;;;;15.51;94.83;102736.66;10456568;28;20491;-69
2021/09/01 05:56:29;;;;;;;12.18;3.78;;;;;;;15.15;95.16;102729.53;10455333;28;20490;-68
2021/09/01 06:01:32;;;;;;;10.05;3.30;;;;;;;15.29;94.03;102728.88;10455287;28;20068;-68
2021/09/01 06:06:40;;;;;;;12.75;4.10;;;;;;;15.56;94.33;102739.06;10455929;28;20045;-68
2021/09/01 06:11:45;;;;;;;14.10;4.25;;;;;;;15.51;94.63;102741.09;10455180;28;20499;-69
2021/09/01 06:16:47;;;;;;;10.10;3.63;;;;;;;15.36;99.38;102740.88;10456288;28;20600;-68
2021/09/01 06:21:50;;;;;;;10.52;4.20;;;;;;;15.57;97.51;102739.00;10455971;28;20053;-68
2021/09/01 06:26:52;;;;;;;10.00;3.90;;;;;;;15.56;100.00;102744.34;10456392;28;20056;-69
2021/09/01 06:31:55;;;;;;;15.32;4.25;;;;;;;15.56;99.09;102745.19;10456095;28;20067;-70
2021/09/01 06:37:00;;;;;;;12.98;3.63;;;;;;;15.42;93.25;102750.31;10456000;28;20060;-69
2021/09/01 06:42:03;;;;;;;8.90;3.38;;;;;;;15.59;96.66;102763.53;10455793;28;20049;-69
2021/09/01 06:47:05;;;;;;;10.82;3.95;;;;;;;15.54;98.42;102762.06;10455781;28;20068;-69
2021/09/01 06:52:08;;;;;;;13.13;3.50;;;;;;;15.81;98.01;102770.47;10456079;28;20045;-69
2021/09/01 06:57:10;;;;;;;15.75;5.00;;;;;;;15.91;98.06;102762.97;10455343;28;20052;-70
2021/09/01 07:02:12;;;;;;;7.20;3.67;;;;;;;15.73;95.73;102757.59;10456230;28;20049;-68
2021/09/01 07:07:15;;;;;;;11.70;4.25;;;;;;;15.79;92.64;102756.50;10457299;28;20128;-68
2021/09/01 07:12:18;;;;;;;7.03;3.13;;;;;;;16.03;93.58;102762.34;10462857;28;20056;-69
2021/09/01 07:17:20;;;;;;;8.80;2.83;;;;;;;16.07;88.90;102766.56;10462551;28;20048;-68
2021/09/01 07:22:22;;;;;;;12.35;4.28;;;;;;;16.21;90.38;102767.69;10462397;28;20053;-69
2021/09/01 07:27:25;;;;;;;12.05;3.38;;;;;;;16.69;90.73;102766.09;10462413;28;20061;-69
2021/09/01 07:32:27;;;;;;;9.57;2.67;;;;;;;16.63;86.54;102766.44;10461985;28;20041;-70
2021/09/01 07:37:29;;;;;;;13.90;3.92;;;;;;;16.63;87.17;102771.72;10461774;28;20056;-68
2021/09/01 07:42:32;;;;;;;13.10;3.10;;;;;;;16.53;89.16;102784.53;10461829;28;20056;-69
2021/09/01 07:47:34;;;;;;;10.98;2.88;;;;;;;16.64;86.04;102789.28;10461323;28;20048;-68
2021/09/01 07:52:36;;;;;;;11.45;3.15;;;;;;;16.43;86.80;102802.66;10461169;28;20515;-69
2021/09/01 07:57:39;;;;;;;8.43;3.80;;;;;;;16.55;84.08;102803.81;10461351;28;20053;-69
2021/09/01 08:02:42;;;;;;;6.35;2.83;;;;;;;16.84;84.43;102805.00;10460764;28;20425;-69
2021/09/01 08:07:44;;;;;;;7.85;3.33;;;;;;;16.82;84.19;102817.41;10460581;28;20064;-69
2021/09/01 08:12:47;;;;;;;7.03;3.05;;;;;;;16.77;84.06;102816.81;10460618;28;20048;-68
2021/09/01 08:17:50;;;;;;;7.15;3.05;;;;;;;16.96;81.00;102829.09;10459311;28;20512;-69
2021/09/01 08:22:55;;;;;;;14.95;3.88;;;;;;;17.14;82.37;102822.00;10459605;28;20045;-69
2021/09/01 08:27:58;;;;;;;10.35;3.40;;;;;;;17.37;79.94;102831.38;10460376;28;20053;-69
2021/09/01 08:33:00;;;;;;;7.07;2.72;;;;;;;17.14;79.14;102829.94;10460020;28;20041;-69
2021/09/01 08:38:03;;;;;;;7.05;2.80;;;;;;;17.37;79.01;102826.91;10459206;28;20055;-69
2021/09/01 08:43:07;;;;;;;10.23;3.50;;;;;;;17.36;75.74;102832.28;10459582;28;20052;-69
2021/09/01 08:48:13;;;;;;;8.85;3.10;;;;;;;17.26;81.12;102830.16;10458794;28;20500;-69
2021/09/01 08:53:15;;;;;;;9.77;3.10;;;;;;;17.38;76.17;102831.28;10458350;28;20045;-69
2021/09/01 08:58:18;;;;;;;5.93;3.25;;;;;;;17.57;79.81;102831.13;10458517;28;20397;-68
2021/09/01 09:03:20;;;;;;;8.35;3.50;;;;;;;17.85;78.51;102837.53;10457428;28;20052;-69
2021/09/01 09:08:23;;;;;;;8.85;2.80;;;;;;;17.63;77.73;102835.22;10458259;28;20088;-69
2021/09/01 09:13:29;;;;;;;6.07;3.30;;;;;;;17.82;73.09;102832.44;10457000;28;20485;-69
2021/09/01 09:18:31;;;;;;;7.40;3.58;;;;;;;18.08;78.33;102827.47;10458448;28;20056;-69
2021/09/01 09:23:33;;;;;;;12.13;3.67;;;;;;;17.72;78.71;102833.84;10457575;28;20048;-69
2021/09/01 09:28:36;;;;;;;11.25;3.15;;;;;;;17.58;76.40;102824.88;10457447;28;20044;-68
2021/09/01 09:33:41;;;;;;;11.32;3.45;;;;;;;18.03;72.93;102829.53;10457232;28;20056;-69
2021/09/01 09:38:47;;;;;;;12.73;3.60;;;;;;;18.37;75.57;102826.66;10457026;28;20412;-70
2021/09/01 09:43:52;;;;;;;9.98;2.88;;;;;;;18.47;72.64;102826.09;10457074;28;20488;-69
2021/09/01 09:49:05;;;;;;;13.63;3.80;;;;;;;17.77;76.51;102830.03;10456315;28;20048;-69
2021/09/01 09:54:15;;;;;;;5.55;3.00;;;;;;;18.42;76.15;102836.13;10456835;28;20052;-70
2021/09/01 09:59:19;;;;;;;14.02;3.40;;;;;;;18.41;72.81;102837.06;10456438;28;20056;-69
2021/09/01 10:04:22;;;;;;;9.38;3.78;;;;;;;19.22;70.59;102834.84;10456567;28;20049;-69
2021/09/01 10:09:24;;;;;;;11.02;3.38;;;;;;;19.94;68.58;102823.28;10456831;28;20052;-69
2021/09/01 10:14:27;;;;;;;7.97;2.97;;;;;;;19.45;64.45;102816.63;10456819;28;20045;-69
2021/09/01 10:19:30;;;;;;;8.63;3.33;;;;;;;19.39;66.65;102819.69;10456153;28;20209;-69
2021/09/01 10:24:37;;;;;;;8.18;3.00;;;;;;;19.56;68.96;102814.13;10455579;28;20053;-69
2021/09/01 10:29:50;;;;;;;7.72;2.83;;;;;;;19.62;70.16;102805.78;10456079;28;20053;-69
2021/09/01 10:35:21;;;;;;;7.10;3.20;;;;;;;19.04;70.20;102817.41;10456372;28;20041;-69
2021/09/01 10:40:23;;;;;;;14.93;3.00;;;;;;;19.28;68.80;102807.06;10455842;28;20045;-69
2021/09/01 10:45:32;;;;;;;7.20;2.95;;;;;;;18.72;70.06;102814.88;10462612;28;20041;-69
2021/09/01 10:50:37;;;;;;;7.65;2.78;;;;;;;18.65;71.06;102813.53;10463354;28;20051;-69
2021/09/01 10:55:49;;;;;;;5.28;2.90;;;;;;;19.04;72.64;102804.13;10463926;28;20055;-69
2021/09/01 11:00:55;;;;;;;10.57;2.70;;;;;;;18.82;68.08;102808.06;10463694;28;20053;-69
2021/09/01 11:06:10;;;;;;;8.27;2.90;;;;;;;19.34;69.29;102800.53;10463341;28;20052;-69
2021/09/01 11:11:12;;;;;;;13.82;3.83;;;;;;;19.26;66.42;102791.22;10463064;28;20049;-68
2021/09/01 11:16:21;;;;;;;9.43;2.97;;;;;;;19.57;68.48;102788.41;10462705;28;20053;-68
2021/09/01 11:21:24;;;;;;;6.88;3.13;;;;;;;19.70;67.29;102786.69;10462340;28;20477;-69
2021/09/01 11:26:28;;;;;;;10.32;3.20;;;;;;;19.99;70.55;102790.13;10461118;28;20053;-69
2021/09/01 11:31:31;;;;;;;7.88;3.47;;;;;;;18.81;68.55;102798.41;10462550;28;20052;-69
2021/09/01 11:36:34;;;;;;;9.25;3.13;;;;;;;19.44;72.20;102783.91;10461955;28;20106;-68
2021/09/01 11:41:37;;;;;;;10.15;3.28;;;;;;;19.60;71.38;102791.75;10461924;28;20067;-70
2021/09/01 11:46:40;;;;;;;9.95;3.58;;;;;;;19.04;68.72;102793.53;10460702;28;20057;-69
2021/09/01 11:51:45;;;;;;;9.15;3.08;;;;;;;19.20;72.01;102788.97;10461080;28;20060;-69
2021/09/01 11:56:47;;;;;;;7.43;2.88;;;;;;;19.31;72.72;102790.94;10460893;28;20061;-68
2021/09/01 12:01:56;;;;;;;9.70;3.95;;;;;;;18.97;74.56;102798.34;10459757;28;20067;-68
2021/09/01 12:06:59;;;;;;;8.77;3.72;;;;;;;18.53;73.55;102802.72;10459848;28;20041;-68
2021/09/01 12:12:03;;;;;;;8.48;2.85;;;;;;;18.55;73.73;102792.84;10460805;28;20063;-68
2021/09/01 12:17:20;;;;;;;9.73;4.55;;;;;;;18.02;77.22;102799.50;10460433;28;20095;-68
2021/09/01 12:22:30;;;;;;;9.20;3.88;;;;;;;18.67;73.94;102799.22;10460369;28;20132;-68
2021/09/01 12:27:33;;;;;;;9.63;3.42;;;;;;;18.83;76.08;102803.63;10459875;28;20055;-68
2021/09/01 12:32:36;;;;;;;9.88;3.25;;;;;;;18.71;75.64;102798.13;10460056;28;20075;-68
2021/09/01 12:37:39;;;;;;;6.03;3.08;;;;;;;18.78;76.46;102798.59;10459702;28;20053;-69
2021/09/01 12:42:44;;;;;;;5.90;3.08;;;;;;;19.11;76.66;102792.19;10459398;28;20056;-68
2021/09/01 12:47:59;;;;;;;11.00;3.92;;;;;;;18.63;74.30;102804.84;10459183;28;20041;-68
2021/09/01 12:53:02;;;;;;;9.95;3.65;;;;;;;19.03;76.06;102797.09;10459468;28;20049;-68
2021/09/01 12:58:05;;;;;;;9.27;3.13;;;;;;;19.58;70.26;102782.16;10458832;28;20049;-68
2021/09/01 13:03:07;;;;;;;9.93;3.05;;;;;;;19.24;67.88;102779.84;10459014;28;20061;-68
2021/09/01 13:08:10;;;;;;;9.90;4.65;;;;;;;18.93;65.55;102765.00;10457955;28;20060;-68
2021/09/01 13:13:12;;;;;;;9.38;3.35;;;;;;;19.28;71.23;102761.91;10458339;28;20049;-68
2021/09/01 13:18:15;;;;;;;7.68;3.33;;;;;;;19.33;76.44;102765.13;10457800;28;20048;-68
2021/09/01 13:23:17;;;;;;;8.90;3.40;;;;;;;19.25;74.21;102768.28;10457562;28;20052;-68
2021/09/01 13:28:19;;;;;;;7.10;2.85;;;;;;;19.05;75.29;102761.56;10457631;28;20058;-68
2021/09/01 13:33:23;;;;;;;8.57;3.28;;;;;;;18.85;74.05;102769.94;10457207;28;20506;-69
2021/09/01 13:38:25;;;;;;;6.75;3.20;;;;;;;18.93;76.32;102775.63;10457670;28;20041;-69
2021/09/01 13:43:28;;;;;;;8.75;3.17;;;;;;;18.86;75.91;102776.91;10457338;28;20055;-68
2021/09/01 13:48:31;;;;;;;7.38;3.22;;;;;;;19.03;79.57;102768.78;10457560;28;20053;-68
2021/09/01 13:53:34;;;;;;;9.73;4.30;;;;;;;18.76;77.46;102771.28;10456680;28;20048;-69
2021/09/01 13:58:36;;;;;;;7.50;3.15;;;;;;;18.68;75.65;102771.75;10456690;28;20045;-69
2021/09/01 14:03:42;;;;;;;7.78;3.35;;;;;;;18.82;79.69;102770.91;10457110;28;20045;-69
2021/09/01 14:08:44;;;;;;;9.32;4.05;;;;;;;18.66;76.49;102768.34;10456216;28;20416;-68
2021/09/01 14:13:47;;;;;;;9.68;3.72;;;;;;;18.45;74.97;102764.34;10456644;28;20067;-68
2021/09/01 14:18:50;;;;;;;6.72;3.35;;;;;;;18.66;77.01;102763.06;10462748;28;20060;-69
2021/09/01 14:23:52;;;;;;;10.80;3.70;;;;;;;19.27;76.04;102754.91;10463459;28;20059;-69
2021/09/01 14:28:54;;;;;;;11.07;4.20;;;;;;;19.26;72.67;102751.38;10465000;28;20049;-69
2021/09/01 14:33:56;;;;;;;11.63;4.38;;;;;;;19.11;74.10;102750.59;10464450;28;20045;-69
2021/09/01 14:38:59;;;;;;;8.80;3.95;;;;;;;19.00;75.25;102747.72;10464895;28;20041;-68
2021/09/01 14:44:01;;;;;;;10.23;3.80;;;;;;;19.00;76.86;102747.72;10464061;28;20045;-68
2021/09/01 14:49:03;;;;;;;6.70;3.50;;;;;;;18.94;80.21;102750.75;10463633;28;20047;-68
2021/09/01 14:54:06;;;;;;;13.05;3.92;;;;;;;18.84;74.46;102749.63;10464089;28;20041;-68
2021/09/01 14:59:08;;;;;;;10.73;4.07;;;;;;;18.92;77.88;102748.19;10463346;28;20049;-68
2021/09/01 15:04:11;;;;;;;10.93;3.35;;;;;;;18.80;76.49;102753.41;10463211;28;20045;-68
2021/09/01 15:09:13;;;;;;;9.45;3.80;;;;;;;18.71;78.29;102750.34;10462806;28;20493;-68
2021/09/01 15:14:15;;;;;;;8.45;3.97;;;;;;;18.50;78.60;102736.59;10462825;28;20511;-68
2021/09/01 15:19:21;;;;;;;8.80;4.05;;;;;;;18.60;79.58;102733.38;10462898;28;20049;-68
2021/09/01 15:24:23;;;;;;;12.45;3.72;;;;;;;18.54;81.87;102737.25;10462567;28;20045;-68
2021/09/01 15:29:27;;;;;;;9.10;3.30;;;;;;;18.52;80.79;102734.69;10461303;28;20396;-68
2021/09/01 15:34:30;;;;;;;8.50;4.45;;;;;;;18.46;79.69;102739.50;10462242;28;20153;-68
2021/09/01 15:39:32;;;;;;;7.03;3.22;;;;;;;18.47;81.98;102722.66;10461611;28;20496;-68
2021/09/01 15:44:35;;;;;;;9.85;3.38;;;;;;;18.33;85.73;102727.00;10461975;28;20041;-68
2021/09/01 15:49:37;;;;;;;6.95;3.28;;;;;;;18.26;85.41;102717.72;10461345;28;20485;-68
2021/09/01 15:54:40;;;;;;;3.67;2.80;;;;;;;18.19;90.26;102722.53;10461271;28;20394;-68
2021/09/01 15:59:49;;;;;;;8.07;3.65;;;;;;;18.20;89.54;102713.59;10459746;28;20386;-68
2021/09/01 16:04:52;;;;;;;9.40;3.75;;;;;;;18.25;87.66;102712.50;10459787;28;20428;-68
2021/09/01 16:09:55;;;;;;;9.18;3.88;;;;;;;18.04;85.85;102707.53;10460469;28;20049;-68
2021/09/01 16:15:05;;;;;;;8.95;3.42;;;;;;;18.04;89.07;102707.53;10461271;28;20127;-68
2021/09/01 16:20:11;;;;;;;9.15;3.78;;;;;;;18.01;92.23;102702.41;10460289;28;20080;-68
2021/09/01 16:25:15;;;;;;;6.20;3.53;;;;;;;18.14;95.33;102702.50;10460763;28;20056;-68
2021/09/01 16:30:23;;;;;;;6.95;3.42;;;;;;;18.02;97.57;102701.44;10459759;28;20055;-68
2021/09/01 16:35:25;;;;;;;12.98;4.18;;;;;;;18.04;96.82;102699.56;10459695;28;20540;-68
2021/09/01 16:40:30;;;;;;;8.95;3.22;;;;;;;17.95;97.50;102690.34;10458275;28;20045;-68
2021/09/01 16:45:33;;;;;;;7.97;3.92;;;;;;;17.82;98.41;102705.25;10460201;28;20041;-69
2021/09/01 16:50:36;;;;;;;9.38;3.80;;;;;;;17.92;99.05;102703.81;10459143;28;20045;-68
2021/09/01 16:55:44;;;;;;;6.82;3.50;;;;;;;18.14;97.92;102699.88;10457814;28;20053;-69
2021/09/01 17:00:48;;;;;;;8.40;3.55;;;;;;;17.95;100.00;102692.16;10458621;28;20053;-68
2021/09/01 17:06:03;;;;;;;13.10;4.15;;;;;;;18.14;98.27;102695.44;10458505;28;20045;-69
2021/09/01 17:11:06;;;;;;;8.95;3.15;;;;;;;17.85;98.58;102691.78;10458434;28;20053;-69
2021/09/01 17:16:09;;;;;;;11.57;4.22;;;;;;;17.64;98.98;102691.25;10458234;28;20052;-69
2021/09/01 17:21:13;;;;;;;12.85;4.68;;;;;;;17.81;95.51;102691.13;10457383;28;20099;-68
2021/09/01 17:26:21;;;;;;;7.32;3.63;;;;;;;17.83;99.01;102691.88;10457805;28;20060;-69
2021/09/01 17:31:29;;;;;;;8.45;3.72;;;;;;;17.48;100.00;102693.06;10457487;28;20056;-68
2021/09/01 17:36:32;;;;;;;11.02;4.40;;;;;;;17.73;100.00;102690.72;10457649;28;20048;-69
2021/09/01 17:41:34;;;;;;;8.00;3.00;;;;;;;17.80;97.88;102697.38;10455982;28;20056;-68
2021/09/01 17:46:37;;;;;;;9.18;3.45;;;;;;;17.80;96.27;102696.50;10455858;28;20547;-68
2021/09/01 17:51:39;;;;;;;6.70;3.55;;;;;;;17.08;100.00;102698.81;10456792;28;20053;-68
2021/09/01 17:56:44;;;;;;;11.93;4.63;;;;;;;16.81;100.00;102703.75;10457965;28;20045;-68
2021/09/01 18:01:47;;;;;;;9.73;3.38;;;;;;;16.94;100.00;102703.97;10456853;28;20045;-68
2021/09/01 18:06:50;;;;;;;7.80;4.13;;;;;;;17.07;100.00;102700.56;10457070;28;20052;-68
2021/09/01 18:11:53;;;;;;;9.45;3.40;;;;;;;17.08;100.00;102693.50;10456830;28;20049;-68
2021/09/01 18:16:56;;;;;;;6.85;3.17;;;;;;;16.77;100.00;102697.78;10456445;28;20053;-68
2021/09/01 18:21:58;;;;;;;7.28;3.53;;;;;;;16.79;100.00;102702.97;10456196;28;20048;-68
2021/09/01 18:27:01;;;;;;;13.55;3.88;;;;;;;16.68;100.00;102703.56;10456273;28;20053;-68
2021/09/01 18:32:05;;;;;;;9.77;3.90;;;;;;;16.42;100.00;102710.22;10456318;28;20055;-68
2021/09/01 18:37:07;;;;;;;9.27;3.88;;;;;;;16.62;100.00;102711.81;10455980;28;20049;-68
2021/09/01 18:42:12;;;;;;;11.95;4.35;;;;;;;16.44;100.00;102729.47;10455700;28;20523;-68
2021/09/01 18:47:15;;;;;;;12.23;4.00;;;;;;;16.48;100.00;102726.59;10455757;28;20382;-68
2021/09/01 18:52:17;;;;;;;5.40;3.40;;;;;;;16.35;100.00;102734.31;10455342;28;20532;-68
2021/09/01 18:57:21;;;;;;;7.45;3.03;;;;;;;16.26;100.00;102736.59;10455687;28;20059;-68
2021/09/01 19:02:25;;;;;;;7.78;3.70;;;;;;;16.19;100.00;102735.16;10455816;28;20052;-68
2021/09/01 19:07:39;;;;;;;12.82;3.78;;;;;;;16.14;100.00;102733.63;10463370;28;20053;-68
2021/09/01 19:12:51;;;;;;;12.98;4.18;;;;;;;16.21;100.00;102746.53;10461819;28;20044;-68
2021/09/01 19:17:59;;;;;;;7.93;3.95;;;;;;;16.13;100.00;102757.47;10463380;28;20128;-67
2021/09/01 19:23:01;;;;;;;9.80;4.03;;;;;;;16.13;100.00;102757.47;10461378;28;20071;-68
2021/09/01 19:28:04;;;;;;;8.23;4.07;;;;;;;16.30;100.00;102756.63;10461465;28;20060;-68
2021/09/01 19:33:08;;;;;;;8.07;4.18;;;;;;;16.32;100.00;102758.28;10462678;28;20064;-69
2021/09/01 19:38:11;;;;;;;10.10;4.75;;;;;;;16.07;100.00;102747.19;10462011;28;20051;-68
2021/09/01 19:43:13;;;;;;;10.15;5.53;;;;;;;16.16;100.00;102749.41;10461198;28;20045;-68
2021/09/01 19:48:15;;;;;;;11.50;4.40;;;;;;;16.03;100.00;102745.66;10460589;28;20048;-68
2021/09/01 19:53:18;;;;;;;8.00;4.15;;;;;;;16.21;100.00;102741.25;10461116;28;20489;-68
2021/09/01 19:58:21;;;;;;;8.43;4.53;;;;;;;16.32;100.00;102753.00;10460054;28;20060;-68
2021/09/01 20:03:23;;;;;;;9.80;4.13;;;;;;;16.03;100.00;102750.94;10461082;28;20060;-69
2021/09/01 20:08:26;;;;;;;12.02;3.70;;;;;;;16.20;100.00;102755.38;10461312;28;20052;-68
2021/09/01 20:13:28;;;;;;;10.48;3.92;;;;;;;16.09;100.00;102764.72;10459225;28;20052;-68
2021/09/01 20:18:31;;;;;;;12.07;3.72;;;;;;;16.13;100.00;102760.13;10460265;28;20413;-68
2021/09/01 20:23:34;;;;;;;7.75;4.80;;;;;;;15.98;100.00;102762.56;10460278;28;20060;-67
2021/09/01 20:28:36;;;;;;;9.63;3.75;;;;;;;16.14;100.00;102769.78;10458680;28;20539;-68
2021/09/01 20:33:42;;;;;;;11.00;4.63;;;;;;;16.09;100.00;102759.41;10460193;28;20049;-68
2021/09/01 20:38:45;;;;;;;6.82;4.85;;;;;;;15.79;100.00;102760.00;10459605;28;20049;-68
2021/09/01 20:43:53;;;;;;;7.97;4.45;;;;;;;15.92;100.00;102767.31;10459466;28;20512;-68
2021/09/01 20:48:56;;;;;;;7.80;4.18;;;;;;;15.85;100.00;102756.19;10459029;28;20049;-68
2021/09/01 20:53:58;;;;;;;10.52;4.63;;;;;;;15.93;100.00;102751.38;10459474;28;20052;-68
2021/09/01 20:59:03;;;;;;;12.40;4.82;;;;;;;15.76;100.00;102761.91;10459009;28;20049;-68
2021/09/01 21:04:06;;;;;;;14.80;4.82;;;;;;;15.79;100.00;102767.06;10459490;28;20049;-68
2021/09/01 21:09:08;;;;;;;10.98;4.80;;;;;;;15.85;100.00;102760.63;10457365;28;20044;-69
2021/09/01 21:14:10;;;;;;;7.85;4.13;;;;;;;15.92;100.00;102756.75;10457177;28;20064;-68
2021/09/01 21:19:16;;;;;;;9.05;4.82;;;;;;;15.94;100.00;102758.38;10458075;28;20045;-68
2021/09/01 21:24:21;;;;;;;8.65;4.85;;;;;;;15.93;100.00;102766.38;10456877;28;20048;-68
2021/09/01 21:29:23;;;;;;;8.73;4.45;;;;;;;15.82;100.00;102763.41;10457580;28;20091;-68
2021/09/01 21:34:26;;;;;;;8.23;4.25;;;;;;;15.87;100.00;102759.63;10456517;28;20045;-67
2021/09/01 21:39:29;;;;;;;12.90;4.65;;;;;;;15.71;100.00;102751.53;10457001;28;20477;-68
2021/09/01 21:44:31;;;;;;;6.43;3.60;;;;;;;15.85;100.00;102750.91;10457382;28;20049;-68
2021/09/01 21:49:33;;;;;;;8.27;4.18;;;;;;;15.85;100.00;102757.97;10439468;28;20045;-68
2021/09/01 21:54:37;;;;;;;7.45;4.22;;;;;;;15.79;100.00;102749.41;10457182;28;20052;-68
2021/09/01 21:59:39;;;;;;;9.70;4.28;;;;;;;15.84;100.00;102751.00;10455573;28;20049;-68
2021/09/01 22:04:41;;;;;;;9.48;4.45;;;;;;;15.75;100.00;102758.44;10457175;28;20049;-68
2021/09/01 22:09:44;;;;;;;6.78;4.28;;;;;;;15.82;100.00;102761.63;10456477;28;20051;-68
2021/09/01 22:14:46;;;;;;;8.10;4.88;;;;;;;15.84;100.00;102762.41;10456766;28;20052;-68
2021/09/01 22:19:48;;;;;;;8.75;3.70;;;;;;;15.80;100.00;102758.19;10456665;28;20045;-68
2021/09/01 22:24:53;;;;;;;7.32;4.35;;;;;;;15.79;100.00;102754.69;10456372;28;20063;-68
2021/09/01 22:29:56;;;;;;;8.70;4.85;;;;;;;15.68;100.00;102750.84;10456072;28;20505;-68
2021/09/01 22:34:58;;;;;;;10.63;4.40;;;;;;;15.77;100.00;102747.81;10456311;28;20088;-68
2021/09/01 22:40:02;;;;;;;7.35;4.25;;;;;;;15.84;100.00;102751.84;10461158;28;20120;-68
2021/09/01 22:45:05;;;;;;;8.73;4.85;;;;;;;15.69;100.00;102760.47;10464144;28;20045;-68
2021/09/01 22:50:09;;;;;;;8.55;4.47;;;;;;;15.68;100.00;102756.13;10464237;28;20091;-68
2021/09/01 22:55:11;;;;;;;11.73;4.85;;;;;;;15.64;100.00;102752.78;10463774;28;20045;-68
2021/09/01 23:00:14;;;;;;;8.00;4.43;;;;;;;15.73;100.00;102754.97;10463499;28;20045;-68
2021/09/01 23:05:17;;;;;;;8.95;4.88;;;;;;;15.68;100.00;102756.97;10463948;28;20056;-68